sensor_id;sensor_type;location;lat;lon;timestamp;P1;durP1;ratioP1;P2;durP2;ratioP2
20417;SDS011;10368;51.436;6.774;2023-07-13T00:01:32;5.25;;;1.88;;
20417;SDS011;10368;51.436;6.774;2023-07-13T00:03:59;4.95;;;1.60;;
20417;SDS011;10368;51.436;6.774;2023-07-13T00:06:26;4.07;;;1.70;;
20417;SDS011;10368;51.436;6.774;2023-07-13T00:08:56;4.50;;;1.80;;
20417;SDS011;10368;51.436;6.774;2023-07-13T00:11:23;3.35;;;1.58;;
20417;SDS011;10368;51.436;6.774;2023-07-13T00:13:51;2.38;;;1.58;;
20417;SDS011;10368;51.436;6.774;2023-07-13T00:16:18;5.70;;;1.55;;
20417;SDS011;10368;51.436;6.774;2023-07-13T00:18:46;2.88;;;1.30;;
20417;SDS011;10368;51.436;6.774;2023-07-13T00:21:14;2.60;;;1.30;;
20417;SDS011;10368;51.436;6.774;2023-07-13T00:23:41;3.78;;;1.40;;
20417;SDS011;10368;51.436;6.774;2023-07-13T00:26:10;4.63;;;1.40;;
20417;SDS011;10368;51.436;6.774;2023-07-13T00:28:39;4.15;;;1.40;;
20417;SDS011;10368;51.436;6.774;2023-07-13T00:31:08;3.88;;;1.40;;
20417;SDS011;10368;51.436;6.774;2023-07-13T00:33:36;12.32;;;1.48;;
20417;SDS011;10368;51.436;6.774;2023-07-13T00:36:03;6.88;;;1.65;;
20417;SDS011;10368;51.436;6.774;2023-07-13T00:38:31;3.10;;;1.10;;
20417;SDS011;10368;51.436;6.774;2023-07-13T00:40:58;3.35;;;1.27;;
20417;SDS011;10368;51.436;6.774;2023-07-13T00:43:26;4.22;;;1.30;;
20417;SDS011;10368;51.436;6.774;2023-07-13T00:49:01;8.60;;;1.50;;
20417;SDS011;10368;51.436;6.774;2023-07-13T00:51:31;3.28;;;1.13;;
20417;SDS011;10368;51.436;6.774;2023-07-13T00:54:00;3.78;;;1.55;;
20417;SDS011;10368;51.436;6.774;2023-07-13T00:56:30;4.15;;;1.50;;
20417;SDS011;10368;51.436;6.774;2023-07-13T00:58:58;6.05;;;2.03;;
20417;SDS011;10368;51.436;6.774;2023-07-13T01:01:27;2.08;;;1.63;;
20417;SDS011;10368;51.436;6.774;2023-07-13T01:03:54;6.05;;;2.75;;
20417;SDS011;10368;51.436;6.774;2023-07-13T01:06:23;2.85;;;1.60;;
20417;SDS011;10368;51.436;6.774;2023-07-13T01:08:50;4.25;;;1.60;;
20417;SDS011;10368;51.436;6.774;2023-07-13T01:11:18;5.00;;;1.42;;
20417;SDS011;10368;51.436;6.774;2023-07-13T01:13:47;4.03;;;1.77;;
20417;SDS011;10368;51.436;6.774;2023-07-13T01:16:17;4.05;;;1.95;;
20417;SDS011;10368;51.436;6.774;2023-07-13T01:18:45;3.75;;;1.98;;
20417;SDS011;10368;51.436;6.774;2023-07-13T01:21:13;3.33;;;1.67;;
20417;SDS011;10368;51.436;6.774;2023-07-13T01:23:40;7.45;;;2.00;;
20417;SDS011;10368;51.436;6.774;2023-07-13T01:26:07;2.13;;;1.42;;
20417;SDS011;10368;51.436;6.774;2023-07-13T01:28:35;6.75;;;1.90;;
20417;SDS011;10368;51.436;6.774;2023-07-13T01:31:04;3.17;;;1.60;;
20417;SDS011;10368;51.436;6.774;2023-07-13T01:33:31;6.50;;;2.20;;
20417;SDS011;10368;51.436;6.774;2023-07-13T01:35:58;3.17;;;1.63;;
20417;SDS011;10368;51.436;6.774;2023-07-13T01:38:25;6.85;;;1.70;;
20417;SDS011;10368;51.436;6.774;2023-07-13T01:40:53;5.88;;;1.50;;
20417;SDS011;10368;51.436;6.774;2023-07-13T01:43:20;12.93;;;1.92;;
20417;SDS011;10368;51.436;6.774;2023-07-13T01:45:48;6.88;;;1.80;;
20417;SDS011;10368;51.436;6.774;2023-07-13T01:48:15;4.97;;;1.88;;
20417;SDS011;10368;51.436;6.774;2023-07-13T01:50:43;5.03;;;1.98;;
20417;SDS011;10368;51.436;6.774;2023-07-13T01:53:10;2.47;;;1.30;;
20417;SDS011;10368;51.436;6.774;2023-07-13T01:55:37;3.90;;;1.80;;
20417;SDS011;10368;51.436;6.774;2023-07-13T01:58:05;7.68;;;2.17;;
20417;SDS011;10368;51.436;6.774;2023-07-13T02:00:32;4.40;;;1.38;;
20417;SDS011;10368;51.436;6.774;2023-07-13T02:03:00;6.50;;;1.67;;
20417;SDS011;10368;51.436;6.774;2023-07-13T02:05:27;5.05;;;1.95;;
20417;SDS011;10368;51.436;6.774;2023-07-13T02:07:54;3.33;;;1.48;;
20417;SDS011;10368;51.436;6.774;2023-07-13T02:10:22;2.17;;;1.63;;
20417;SDS011;10368;51.436;6.774;2023-07-13T02:12:49;2.75;;;1.35;;
20417;SDS011;10368;51.436;6.774;2023-07-13T02:15:17;5.85;;;2.08;;
20417;SDS011;10368;51.436;6.774;2023-07-13T02:17:45;4.95;;;1.73;;
20417;SDS011;10368;51.436;6.774;2023-07-13T02:20:12;7.45;;;1.73;;
20417;SDS011;10368;51.436;6.774;2023-07-13T02:22:39;4.82;;;1.92;;
20417;SDS011;10368;51.436;6.774;2023-07-13T02:25:07;7.20;;;2.03;;
20417;SDS011;10368;51.436;6.774;2023-07-13T02:27:34;7.18;;;2.45;;
20417;SDS011;10368;51.436;6.774;2023-07-13T02:30:01;2.58;;;1.50;;
20417;SDS011;10368;51.436;6.774;2023-07-13T02:32:29;3.70;;;1.65;;
20417;SDS011;10368;51.436;6.774;2023-07-13T02:34:56;3.60;;;1.80;;
20417;SDS011;10368;51.436;6.774;2023-07-13T02:37:23;3.53;;;1.90;;
20417;SDS011;10368;51.436;6.774;2023-07-13T02:39:50;6.78;;;2.00;;
20417;SDS011;10368;51.436;6.774;2023-07-13T02:42:18;3.67;;;1.52;;
20417;SDS011;10368;51.436;6.774;2023-07-13T02:44:45;3.95;;;2.03;;
20417;SDS011;10368;51.436;6.774;2023-07-13T02:47:12;4.28;;;1.60;;
20417;SDS011;10368;51.436;6.774;2023-07-13T02:49:40;3.58;;;1.98;;
20417;SDS011;10368;51.436;6.774;2023-07-13T02:52:07;6.28;;;1.98;;
20417;SDS011;10368;51.436;6.774;2023-07-13T02:54:34;6.18;;;2.00;;
20417;SDS011;10368;51.436;6.774;2023-07-13T02:57:02;6.45;;;2.25;;
20417;SDS011;10368;51.436;6.774;2023-07-13T02:59:29;4.50;;;1.80;;
20417;SDS011;10368;51.436;6.774;2023-07-13T03:01:57;3.85;;;1.55;;
20417;SDS011;10368;51.436;6.774;2023-07-13T03:04:24;3.85;;;1.95;;
20417;SDS011;10368;51.436;6.774;2023-07-13T03:06:52;4.43;;;1.73;;
20417;SDS011;10368;51.436;6.774;2023-07-13T03:09:19;3.00;;;1.83;;
20417;SDS011;10368;51.436;6.774;2023-07-13T03:11:46;3.17;;;2.05;;
20417;SDS011;10368;51.436;6.774;2023-07-13T03:14:14;4.97;;;2.08;;
20417;SDS011;10368;51.436;6.774;2023-07-13T03:16:41;7.28;;;1.90;;
20417;SDS011;10368;51.436;6.774;2023-07-13T03:19:09;4.53;;;2.05;;
20417;SDS011;10368;51.436;6.774;2023-07-13T03:21:36;4.18;;;2.13;;
20417;SDS011;10368;51.436;6.774;2023-07-13T03:24:03;5.20;;;1.80;;
20417;SDS011;10368;51.436;6.774;2023-07-13T03:26:30;12.60;;;2.72;;
20417;SDS011;10368;51.436;6.774;2023-07-13T03:28:58;4.10;;;1.77;;
20417;SDS011;10368;51.436;6.774;2023-07-13T03:31:26;2.40;;;1.35;;
20417;SDS011;10368;51.436;6.774;2023-07-13T03:33:55;3.78;;;1.85;;
20417;SDS011;10368;51.436;6.774;2023-07-13T03:36:25;3.30;;;1.60;;
20417;SDS011;10368;51.436;6.774;2023-07-13T03:38:53;3.42;;;1.80;;
20417;SDS011;10368;51.436;6.774;2023-07-13T03:41:21;3.67;;;1.92;;
20417;SDS011;10368;51.436;6.774;2023-07-13T03:43:49;6.22;;;1.88;;
20417;SDS011;10368;51.436;6.774;2023-07-13T03:46:16;5.07;;;1.92;;
20417;SDS011;10368;51.436;6.774;2023-07-13T03:48:45;5.78;;;2.15;;
20417;SDS011;10368;51.436;6.774;2023-07-13T03:51:12;5.63;;;2.35;;
20417;SDS011;10368;51.436;6.774;2023-07-13T03:53:41;6.13;;;2.00;;
20417;SDS011;10368;51.436;6.774;2023-07-13T03:56:09;6.03;;;1.95;;
20417;SDS011;10368;51.436;6.774;2023-07-13T03:58:38;3.08;;;2.03;;
20417;SDS011;10368;51.436;6.774;2023-07-13T04:01:06;6.03;;;1.98;;
20417;SDS011;10368;51.436;6.774;2023-07-13T04:03:34;6.28;;;2.00;;
20417;SDS011;10368;51.436;6.774;2023-07-13T04:06:03;5.00;;;2.38;;
20417;SDS011;10368;51.436;6.774;2023-07-13T04:08:31;9.63;;;2.95;;
20417;SDS011;10368;51.436;6.774;2023-07-13T04:10:59;5.38;;;1.98;;
20417;SDS011;10368;51.436;6.774;2023-07-13T04:13:27;6.93;;;2.20;;
20417;SDS011;10368;51.436;6.774;2023-07-13T04:15:54;8.10;;;2.30;;
20417;SDS011;10368;51.436;6.774;2023-07-13T04:18:22;12.10;;;2.33;;
20417;SDS011;10368;51.436;6.774;2023-07-13T04:20:49;6.40;;;2.42;;
20417;SDS011;10368;51.436;6.774;2023-07-13T04:23:17;3.20;;;2.00;;
20417;SDS011;10368;51.436;6.774;2023-07-13T04:25:45;5.80;;;1.92;;
20417;SDS011;10368;51.436;6.774;2023-07-13T04:28:15;9.75;;;1.95;;
20417;SDS011;10368;51.436;6.774;2023-07-13T04:30:46;6.20;;;1.75;;
20417;SDS011;10368;51.436;6.774;2023-07-13T04:33:13;5.18;;;2.13;;
20417;SDS011;10368;51.436;6.774;2023-07-13T04:35:40;6.90;;;2.35;;
20417;SDS011;10368;51.436;6.774;2023-07-13T04:38:08;6.13;;;2.17;;
20417;SDS011;10368;51.436;6.774;2023-07-13T04:40:37;6.35;;;1.98;;
20417;SDS011;10368;51.436;6.774;2023-07-13T04:43:04;6.13;;;2.10;;
20417;SDS011;10368;51.436;6.774;2023-07-13T04:45:31;8.25;;;2.05;;
20417;SDS011;10368;51.436;6.774;2023-07-13T04:47:59;6.25;;;2.08;;
20417;SDS011;10368;51.436;6.774;2023-07-13T04:50:26;7.97;;;2.10;;
20417;SDS011;10368;51.436;6.774;2023-07-13T04:52:53;5.32;;;2.70;;
20417;SDS011;10368;51.436;6.774;2023-07-13T04:55:20;7.88;;;2.05;;
20417;SDS011;10368;51.436;6.774;2023-07-13T04:57:48;8.57;;;2.40;;
20417;SDS011;10368;51.436;6.774;2023-07-13T05:00:15;5.43;;;2.55;;
20417;SDS011;10368;51.436;6.774;2023-07-13T05:02:45;4.97;;;2.10;;
20417;SDS011;10368;51.436;6.774;2023-07-13T05:05:13;5.85;;;2.38;;
20417;SDS011;10368;51.436;6.774;2023-07-13T05:07:40;5.85;;;2.40;;
20417;SDS011;10368;51.436;6.774;2023-07-13T05:10:08;5.93;;;2.30;;
20417;SDS011;10368;51.436;6.774;2023-07-13T05:12:35;6.22;;;2.38;;
20417;SDS011;10368;51.436;6.774;2023-07-13T05:15:03;12.77;;;2.22;;
20417;SDS011;10368;51.436;6.774;2023-07-13T05:17:30;4.63;;;2.10;;
20417;SDS011;10368;51.436;6.774;2023-07-13T05:19:57;6.63;;;2.45;;
20417;SDS011;10368;51.436;6.774;2023-07-13T05:22:25;8.63;;;3.22;;
20417;SDS011;10368;51.436;6.774;2023-07-13T05:24:52;9.07;;;2.85;;
20417;SDS011;10368;51.436;6.774;2023-07-13T05:27:19;5.85;;;2.05;;
20417;SDS011;10368;51.436;6.774;2023-07-13T05:29:46;7.72;;;3.35;;
20417;SDS011;10368;51.436;6.774;2023-07-13T05:32:13;4.82;;;2.10;;
20417;SDS011;10368;51.436;6.774;2023-07-13T05:34:41;4.90;;;2.40;;
20417;SDS011;10368;51.436;6.774;2023-07-13T05:37:08;10.43;;;3.38;;
20417;SDS011;10368;51.436;6.774;2023-07-13T05:39:35;7.10;;;2.67;;
20417;SDS011;10368;51.436;6.774;2023-07-13T05:42:03;6.47;;;3.40;;
20417;SDS011;10368;51.436;6.774;2023-07-13T05:44:30;8.82;;;4.18;;
20417;SDS011;10368;51.436;6.774;2023-07-13T05:46:58;5.93;;;3.20;;
20417;SDS011;10368;51.436;6.774;2023-07-13T05:49:25;7.47;;;3.40;;
20417;SDS011;10368;51.436;6.774;2023-07-13T05:51:52;8.95;;;3.60;;
20417;SDS011;10368;51.436;6.774;2023-07-13T05:54:19;8.70;;;3.58;;
20417;SDS011;10368;51.436;6.774;2023-07-13T05:56:47;7.35;;;3.03;;
20417;SDS011;10368;51.436;6.774;2023-07-13T05:59:14;10.52;;;2.97;;
20417;SDS011;10368;51.436;6.774;2023-07-13T06:01:41;9.32;;;3.17;;
20417;SDS011;10368;51.436;6.774;2023-07-13T06:04:08;12.25;;;4.28;;
20417;SDS011;10368;51.436;6.774;2023-07-13T06:06:36;8.75;;;3.53;;
20417;SDS011;10368;51.436;6.774;2023-07-13T06:09:03;9.00;;;4.15;;
20417;SDS011;10368;51.436;6.774;2023-07-13T06:11:30;8.50;;;3.40;;
20417;SDS011;10368;51.436;6.774;2023-07-13T06:13:57;8.20;;;3.10;;
20417;SDS011;10368;51.436;6.774;2023-07-13T06:16:25;7.45;;;3.35;;
20417;SDS011;10368;51.436;6.774;2023-07-13T06:18:52;8.38;;;3.05;;
20417;SDS011;10368;51.436;6.774;2023-07-13T06:21:20;11.30;;;3.05;;
20417;SDS011;10368;51.436;6.774;2023-07-13T06:23:48;10.40;;;3.22;;
20417;SDS011;10368;51.436;6.774;2023-07-13T06:26:17;8.73;;;3.30;;
20417;SDS011;10368;51.436;6.774;2023-07-13T06:28:45;7.32;;;3.88;;
20417;SDS011;10368;51.436;6.774;2023-07-13T06:31:15;7.00;;;3.28;;
20417;SDS011;10368;51.436;6.774;2023-07-13T06:33:43;7.78;;;3.83;;
20417;SDS011;10368;51.436;6.774;2023-07-13T06:36:11;10.35;;;4.00;;
20417;SDS011;10368;51.436;6.774;2023-07-13T06:38:39;12.05;;;3.65;;
20417;SDS011;10368;51.436;6.774;2023-07-13T06:41:07;9.68;;;4.40;;
20417;SDS011;10368;51.436;6.774;2023-07-13T06:43:35;11.77;;;4.63;;
20417;SDS011;10368;51.436;6.774;2023-07-13T06:46:03;8.35;;;3.70;;
20417;SDS011;10368;51.436;6.774;2023-07-13T06:48:30;10.27;;;4.10;;
20417;SDS011;10368;51.436;6.774;2023-07-13T06:50:57;13.40;;;4.35;;
20417;SDS011;10368;51.436;6.774;2023-07-13T06:53:25;8.50;;;3.75;;
20417;SDS011;10368;51.436;6.774;2023-07-13T06:55:52;10.95;;;4.00;;
20417;SDS011;10368;51.436;6.774;2023-07-13T06:58:20;11.98;;;4.10;;
20417;SDS011;10368;51.436;6.774;2023-07-13T07:00:49;9.68;;;3.70;;
20417;SDS011;10368;51.436;6.774;2023-07-13T07:03:17;16.08;;;3.92;;
20417;SDS011;10368;51.436;6.774;2023-07-13T07:05:44;9.98;;;5.00;;
20417;SDS011;10368;51.436;6.774;2023-07-13T07:08:12;7.22;;;3.83;;
20417;SDS011;10368;51.436;6.774;2023-07-13T07:10:40;11.32;;;4.13;;
20417;SDS011;10368;51.436;6.774;2023-07-13T07:13:07;14.45;;;3.72;;
20417;SDS011;10368;51.436;6.774;2023-07-13T07:15:35;12.05;;;4.25;;
20417;SDS011;10368;51.436;6.774;2023-07-13T07:18:02;9.93;;;4.68;;
20417;SDS011;10368;51.436;6.774;2023-07-13T07:20:30;11.57;;;4.75;;
20417;SDS011;10368;51.436;6.774;2023-07-13T07:22:59;7.47;;;4.07;;
20417;SDS011;10368;51.436;6.774;2023-07-13T07:25:26;9.98;;;4.80;;
20417;SDS011;10368;51.436;6.774;2023-07-13T07:27:58;9.68;;;3.97;;
20417;SDS011;10368;51.436;6.774;2023-07-13T07:30:28;10.13;;;4.32;;
20417;SDS011;10368;51.436;6.774;2023-07-13T07:32:58;10.25;;;4.57;;
20417;SDS011;10368;51.436;6.774;2023-07-13T07:35:30;7.80;;;4.07;;
20417;SDS011;10368;51.436;6.774;2023-07-13T07:38:03;8.93;;;4.05;;
20417;SDS011;10368;51.436;6.774;2023-07-13T07:40:30;10.80;;;4.70;;
20417;SDS011;10368;51.436;6.774;2023-07-13T07:43:00;9.48;;;4.57;;
20417;SDS011;10368;51.436;6.774;2023-07-13T07:45:27;10.63;;;5.10;;
20417;SDS011;10368;51.436;6.774;2023-07-13T07:47:55;6.65;;;4.53;;
20417;SDS011;10368;51.436;6.774;2023-07-13T07:50:25;12.70;;;5.82;;
20417;SDS011;10368;51.436;6.774;2023-07-13T07:52:53;14.18;;;7.53;;
20417;SDS011;10368;51.436;6.774;2023-07-13T07:55:22;11.82;;;6.15;;
20417;SDS011;10368;51.436;6.774;2023-07-13T07:57:53;15.05;;;5.53;;
20417;SDS011;10368;51.436;6.774;2023-07-13T08:00:23;10.45;;;4.85;;
20417;SDS011;10368;51.436;6.774;2023-07-13T08:02:53;14.38;;;4.80;;
20417;SDS011;10368;51.436;6.774;2023-07-13T08:05:23;11.00;;;4.30;;
20417;SDS011;10368;51.436;6.774;2023-07-13T08:08:08;7.93;;;4.25;;
20417;SDS011;10368;51.436;6.774;2023-07-13T08:10:36;8.23;;;4.90;;
20417;SDS011;10368;51.436;6.774;2023-07-13T08:13:03;10.60;;;4.50;;
20417;SDS011;10368;51.436;6.774;2023-07-13T08:15:33;6.65;;;3.80;;
20417;SDS011;10368;51.436;6.774;2023-07-13T08:18:01;10.65;;;4.10;;
20417;SDS011;10368;51.436;6.774;2023-07-13T08:20:28;10.45;;;5.05;;
20417;SDS011;10368;51.436;6.774;2023-07-13T08:22:56;8.32;;;3.55;;
20417;SDS011;10368;51.436;6.774;2023-07-13T08:25:23;7.60;;;3.97;;
20417;SDS011;10368;51.436;6.774;2023-07-13T08:27:50;5.70;;;3.60;;
20417;SDS011;10368;51.436;6.774;2023-07-13T08:30:17;5.90;;;3.42;;
20417;SDS011;10368;51.436;6.774;2023-07-13T08:32:45;6.72;;;3.53;;
20417;SDS011;10368;51.436;6.774;2023-07-13T08:35:12;6.35;;;3.78;;
20417;SDS011;10368;51.436;6.774;2023-07-13T08:37:40;9.00;;;3.88;;
20417;SDS011;10368;51.436;6.774;2023-07-13T08:40:11;6.65;;;4.43;;
20417;SDS011;10368;51.436;6.774;2023-07-13T08:45:21;8.57;;;5.40;;
20417;SDS011;10368;51.436;6.774;2023-07-13T08:47:51;6.78;;;4.18;;
20417;SDS011;10368;51.436;6.774;2023-07-13T08:50:20;5.75;;;3.78;;
20417;SDS011;10368;51.436;6.774;2023-07-13T08:52:50;5.40;;;3.00;;
20417;SDS011;10368;51.436;6.774;2023-07-13T08:55:20;10.43;;;3.97;;
20417;SDS011;10368;51.436;6.774;2023-07-13T08:57:52;6.75;;;3.58;;
20417;SDS011;10368;51.436;6.774;2023-07-13T09:00:20;4.53;;;3.30;;
20417;SDS011;10368;51.436;6.774;2023-07-13T09:05:31;8.55;;;3.50;;
20417;SDS011;10368;51.436;6.774;2023-07-13T09:10:49;5.22;;;3.30;;
20417;SDS011;10368;51.436;6.774;2023-07-13T09:15:49;7.25;;;4.13;;
20417;SDS011;10368;51.436;6.774;2023-07-13T09:18:34;8.20;;;3.95;;
20417;SDS011;10368;51.436;6.774;2023-07-13T09:21:03;11.45;;;3.47;;
20417;SDS011;10368;51.436;6.774;2023-07-13T09:23:31;9.38;;;3.75;;
20417;SDS011;10368;51.436;6.774;2023-07-13T09:26:10;5.43;;;3.65;;
20417;SDS011;10368;51.436;6.774;2023-07-13T09:28:39;10.43;;;3.83;;
20417;SDS011;10368;51.436;6.774;2023-07-13T09:31:29;8.32;;;3.55;;
20417;SDS011;10368;51.436;6.774;2023-07-13T09:34:00;7.50;;;4.07;;
20417;SDS011;10368;51.436;6.774;2023-07-13T09:36:29;5.72;;;3.53;;
20417;SDS011;10368;51.436;6.774;2023-07-13T09:42:07;9.73;;;3.58;;
20417;SDS011;10368;51.436;6.774;2023-07-13T09:44:15;7.03;;;4.05;;
20417;SDS011;10368;51.436;6.774;2023-07-13T09:46:44;7.65;;;3.60;;
20417;SDS011;10368;51.436;6.774;2023-07-13T09:49:12;8.02;;;2.88;;
20417;SDS011;10368;51.436;6.774;2023-07-13T09:51:40;7.53;;;3.35;;
20417;SDS011;10368;51.436;6.774;2023-07-13T09:54:20;8.95;;;3.78;;
20417;SDS011;10368;51.436;6.774;2023-07-13T09:56:47;10.40;;;3.67;;
20417;SDS011;10368;51.436;6.774;2023-07-13T09:59:21;6.47;;;3.10;;
20417;SDS011;10368;51.436;6.774;2023-07-13T10:01:50;8.13;;;3.03;;
20417;SDS011;10368;51.436;6.774;2023-07-13T10:04:19;5.53;;;2.88;;
20417;SDS011;10368;51.436;6.774;2023-07-13T10:06:46;8.23;;;3.45;;
20417;SDS011;10368;51.436;6.774;2023-07-13T10:09:17;5.80;;;3.25;;
20417;SDS011;10368;51.436;6.774;2023-07-13T10:11:45;7.00;;;2.85;;
20417;SDS011;10368;51.436;6.774;2023-07-13T10:14:20;7.82;;;3.70;;
20417;SDS011;10368;51.436;6.774;2023-07-13T10:16:59;7.65;;;3.55;;
20417;SDS011;10368;51.436;6.774;2023-07-13T10:19:31;5.72;;;3.20;;
20417;SDS011;10368;51.436;6.774;2023-07-13T10:22:00;7.75;;;3.10;;
20417;SDS011;10368;51.436;6.774;2023-07-13T10:24:29;5.93;;;3.45;;
20417;SDS011;10368;51.436;6.774;2023-07-13T10:29:25;8.32;;;4.82;;
20417;SDS011;10368;51.436;6.774;2023-07-13T10:31:54;9.63;;;3.63;;
20417;SDS011;10368;51.436;6.774;2023-07-13T10:34:23;7.55;;;3.42;;
20417;SDS011;10368;51.436;6.774;2023-07-13T10:36:51;5.72;;;2.60;;
20417;SDS011;10368;51.436;6.774;2023-07-13T10:39:20;6.90;;;3.67;;
20417;SDS011;10368;51.436;6.774;2023-07-13T10:41:51;7.30;;;3.42;;
20417;SDS011;10368;51.436;6.774;2023-07-13T10:44:24;8.20;;;3.58;;
20417;SDS011;10368;51.436;6.774;2023-07-13T10:46:55;6.60;;;3.20;;
20417;SDS011;10368;51.436;6.774;2023-07-13T10:49:24;3.28;;;2.67;;
20417;SDS011;10368;51.436;6.774;2023-07-13T10:51:53;8.15;;;3.70;;
20417;SDS011;10368;51.436;6.774;2023-07-13T10:54:31;9.98;;;3.72;;
20417;SDS011;10368;51.436;6.774;2023-07-13T10:57:15;8.57;;;3.50;;
20417;SDS011;10368;51.436;6.774;2023-07-13T11:00:30;7.53;;;3.42;;
20417;SDS011;10368;51.436;6.774;2023-07-13T11:02:31;5.13;;;2.55;;
20417;SDS011;10368;51.436;6.774;2023-07-13T11:04:58;8.25;;;2.90;;
20417;SDS011;10368;51.436;6.774;2023-07-13T11:07:27;7.50;;;2.97;;
20417;SDS011;10368;51.436;6.774;2023-07-13T11:09:56;4.60;;;2.75;;
20417;SDS011;10368;51.436;6.774;2023-07-13T11:19:53;5.57;;;2.88;;
20417;SDS011;10368;51.436;6.774;2023-07-13T11:22:24;6.10;;;2.55;;
20417;SDS011;10368;51.436;6.774;2023-07-13T11:27:37;7.15;;;3.28;;
20417;SDS011;10368;51.436;6.774;2023-07-13T11:32:41;8.50;;;2.65;;
20417;SDS011;10368;51.436;6.774;2023-07-13T11:35:16;5.72;;;2.55;;
20417;SDS011;10368;51.436;6.774;2023-07-13T11:37:46;5.80;;;2.70;;
20417;SDS011;10368;51.436;6.774;2023-07-13T11:40:14;4.22;;;2.53;;
20417;SDS011;10368;51.436;6.774;2023-07-13T11:42:41;5.30;;;3.03;;
20417;SDS011;10368;51.436;6.774;2023-07-13T11:45:18;4.90;;;2.50;;
20417;SDS011;10368;51.436;6.774;2023-07-13T11:47:48;10.15;;;3.13;;
20417;SDS011;10368;51.436;6.774;2023-07-13T11:50:20;3.15;;;2.20;;
20417;SDS011;10368;51.436;6.774;2023-07-13T11:52:48;4.60;;;2.28;;
20417;SDS011;10368;51.436;6.774;2023-07-13T11:55:17;4.65;;;2.17;;
20417;SDS011;10368;51.436;6.774;2023-07-13T11:57:47;6.72;;;1.75;;
20417;SDS011;10368;51.436;6.774;2023-07-13T12:00:17;5.25;;;2.20;;
20417;SDS011;10368;51.436;6.774;2023-07-13T12:02:46;3.17;;;2.83;;
20417;SDS011;10368;51.436;6.774;2023-07-13T12:05:18;3.67;;;2.47;;
20417;SDS011;10368;51.436;6.774;2023-07-13T12:07:46;4.68;;;2.15;;
20417;SDS011;10368;51.436;6.774;2023-07-13T12:12:55;6.03;;;2.22;;
20417;SDS011;10368;51.436;6.774;2023-07-13T12:15:23;5.05;;;2.47;;
20417;SDS011;10368;51.436;6.774;2023-07-13T12:17:52;2.75;;;1.70;;
20417;SDS011;10368;51.436;6.774;2023-07-13T12:20:20;5.80;;;2.40;;
20417;SDS011;10368;51.436;6.774;2023-07-13T12:22:48;6.45;;;2.40;;
20417;SDS011;10368;51.436;6.774;2023-07-13T12:25:16;5.93;;;2.30;;
20417;SDS011;10368;51.436;6.774;2023-07-13T12:27:48;5.45;;;2.25;;
20417;SDS011;10368;51.436;6.774;2023-07-13T12:35:26;5.70;;;2.38;;
20417;SDS011;10368;51.436;6.774;2023-07-13T12:37:56;5.45;;;2.10;;
20417;SDS011;10368;51.436;6.774;2023-07-13T12:40:26;5.85;;;2.17;;
20417;SDS011;10368;51.436;6.774;2023-07-13T12:42:54;3.20;;;1.92;;
20417;SDS011;10368;51.436;6.774;2023-07-13T12:45:23;4.47;;;1.92;;
20417;SDS011;10368;51.436;6.774;2023-07-13T12:47:55;7.85;;;2.78;;
20417;SDS011;10368;51.436;6.774;2023-07-13T12:50:30;6.35;;;2.28;;
20417;SDS011;10368;51.436;6.774;2023-07-13T12:52:59;4.05;;;1.98;;
20417;SDS011;10368;51.436;6.774;2023-07-13T12:55:29;4.30;;;1.92;;
20417;SDS011;10368;51.436;6.774;2023-07-13T12:58:03;8.73;;;1.85;;
20417;SDS011;10368;51.436;6.774;2023-07-13T13:00:31;9.48;;;2.35;;
20417;SDS011;10368;51.436;6.774;2023-07-13T13:03:16;3.13;;;2.08;;
20417;SDS011;10368;51.436;6.774;2023-07-13T13:06:02;5.93;;;2.50;;
20417;SDS011;10368;51.436;6.774;2023-07-13T13:08:32;6.32;;;1.95;;
20417;SDS011;10368;51.436;6.774;2023-07-13T13:10:59;4.75;;;1.95;;
20417;SDS011;10368;51.436;6.774;2023-07-13T13:13:27;6.63;;;2.22;;
20417;SDS011;10368;51.436;6.774;2023-07-13T13:15:55;5.93;;;2.40;;
20417;SDS011;10368;51.436;6.774;2023-07-13T13:18:23;4.78;;;2.03;;
20417;SDS011;10368;51.436;6.774;2023-07-13T13:20:51;9.88;;;2.42;;
20417;SDS011;10368;51.436;6.774;2023-07-13T13:23:19;3.78;;;2.10;;
20417;SDS011;10368;51.436;6.774;2023-07-13T13:25:48;3.30;;;1.60;;
20417;SDS011;10368;51.436;6.774;2023-07-13T13:28:16;4.53;;;1.92;;
20417;SDS011;10368;51.436;6.774;2023-07-13T13:30:45;3.42;;;1.70;;
20417;SDS011;10368;51.436;6.774;2023-07-13T13:33:14;3.10;;;2.00;;
20417;SDS011;10368;51.436;6.774;2023-07-13T13:35:42;9.80;;;2.38;;
20417;SDS011;10368;51.436;6.774;2023-07-13T13:38:10;4.22;;;1.67;;
20417;SDS011;10368;51.436;6.774;2023-07-13T13:40:38;8.13;;;1.80;;
20417;SDS011;10368;51.436;6.774;2023-07-13T13:43:13;2.95;;;1.83;;
20417;SDS011;10368;51.436;6.774;2023-07-13T13:45:42;3.97;;;1.80;;
20417;SDS011;10368;51.436;6.774;2023-07-13T13:48:19;3.95;;;2.03;;
20417;SDS011;10368;51.436;6.774;2023-07-13T13:50:48;4.18;;;2.00;;
20417;SDS011;10368;51.436;6.774;2023-07-13T13:53:15;3.72;;;2.10;;
20417;SDS011;10368;51.436;6.774;2023-07-13T13:55:42;2.90;;;1.67;;
20417;SDS011;10368;51.436;6.774;2023-07-13T13:58:10;4.90;;;1.95;;
20417;SDS011;10368;51.436;6.774;2023-07-13T14:00:37;7.32;;;2.13;;
20417;SDS011;10368;51.436;6.774;2023-07-13T14:03:13;5.05;;;2.55;;
20417;SDS011;10368;51.436;6.774;2023-07-13T14:05:41;7.75;;;3.47;;
20417;SDS011;10368;51.436;6.774;2023-07-13T14:08:12;7.55;;;3.90;;
20417;SDS011;10368;51.436;6.774;2023-07-13T14:10:39;5.47;;;3.15;;
20417;SDS011;10368;51.436;6.774;2023-07-13T14:13:07;7.88;;;3.38;;
20417;SDS011;10368;51.436;6.774;2023-07-13T14:15:43;4.72;;;3.42;;
20417;SDS011;10368;51.436;6.774;2023-07-13T14:18:11;18.10;;;4.90;;
20417;SDS011;10368;51.436;6.774;2023-07-13T14:20:47;10.75;;;4.40;;
20417;SDS011;10368;51.436;6.774;2023-07-13T14:23:15;14.75;;;9.25;;
20417;SDS011;10368;51.436;6.774;2023-07-13T14:25:45;7.30;;;4.13;;
20417;SDS011;10368;51.436;6.774;2023-07-13T14:28:20;5.70;;;4.30;;
20417;SDS011;10368;51.436;6.774;2023-07-13T14:30:48;7.90;;;4.63;;
20417;SDS011;10368;51.436;6.774;2023-07-13T14:33:15;7.03;;;3.67;;
20417;SDS011;10368;51.436;6.774;2023-07-13T14:35:43;5.25;;;3.08;;
20417;SDS011;10368;51.436;6.774;2023-07-13T14:38:15;6.22;;;3.28;;
20417;SDS011;10368;51.436;6.774;2023-07-13T14:40:42;6.45;;;2.55;;
20417;SDS011;10368;51.436;6.774;2023-07-13T14:43:10;5.22;;;2.97;;
20417;SDS011;10368;51.436;6.774;2023-07-13T14:45:40;6.47;;;2.97;;
20417;SDS011;10368;51.436;6.774;2023-07-13T14:48:13;5.72;;;2.83;;
20417;SDS011;10368;51.436;6.774;2023-07-13T14:50:40;4.47;;;2.60;;
20417;SDS011;10368;51.436;6.774;2023-07-13T14:53:11;6.30;;;2.65;;
20417;SDS011;10368;51.436;6.774;2023-07-13T14:55:38;4.32;;;2.75;;
20417;SDS011;10368;51.436;6.774;2023-07-13T14:58:06;5.55;;;3.00;;
20417;SDS011;10368;51.436;6.774;2023-07-13T15:00:33;5.72;;;2.70;;
20417;SDS011;10368;51.436;6.774;2023-07-13T15:03:01;3.83;;;2.88;;
20417;SDS011;10368;51.436;6.774;2023-07-13T15:05:29;5.15;;;2.92;;
20417;SDS011;10368;51.436;6.774;2023-07-13T15:08:00;5.80;;;3.05;;
20417;SDS011;10368;51.436;6.774;2023-07-13T15:10:29;3.35;;;2.85;;
20417;SDS011;10368;51.436;6.774;2023-07-13T15:12:58;4.85;;;2.63;;
20417;SDS011;10368;51.436;6.774;2023-07-13T15:15:28;3.45;;;2.40;;
20417;SDS011;10368;51.436;6.774;2023-07-13T15:17:55;9.27;;;2.83;;
20417;SDS011;10368;51.436;6.774;2023-07-13T15:22:50;4.93;;;2.47;;
20417;SDS011;10368;51.436;6.774;2023-07-13T15:25:19;4.47;;;2.40;;
20417;SDS011;10368;51.436;6.774;2023-07-13T15:27:46;3.13;;;2.10;;
20417;SDS011;10368;51.436;6.774;2023-07-13T15:30:14;3.83;;;2.17;;
20417;SDS011;10368;51.436;6.774;2023-07-13T15:32:42;3.88;;;2.25;;
20417;SDS011;10368;51.436;6.774;2023-07-13T15:35:25;3.22;;;2.10;;
20417;SDS011;10368;51.436;6.774;2023-07-13T15:37:54;3.47;;;2.35;;